createdAt,value
2022-08-04T00:01:57.532Z,100854.91
2022-08-04T00:05:10.125Z,100849.75
2022-08-04T00:08:09.481Z,100847.94
2022-08-04T00:11:01.981Z,100850.63
2022-08-04T00:13:59.778Z,100848.13
2022-08-04T00:16:55.225Z,100843.59
2022-08-04T00:19:44.286Z,100850.69
2022-08-04T00:22:42.245Z,100845.41
2022-08-04T00:25:15.129Z,100842.16
2022-08-04T00:27:49.577Z,100847.44
2022-08-04T00:30:34.113Z,100840.03
2022-08-04T00:33:09.096Z,100842.69
2022-08-04T00:36:07.496Z,100843.59
2022-08-04T00:39:14.241Z,100843.91
2022-08-04T00:42:22.560Z,100849.28
2022-08-04T00:45:12.410Z,100847.66
2022-08-04T00:48:06.568Z,100847.16
2022-08-04T00:50:54.837Z,100847.00
2022-08-04T00:53:31.863Z,100841.44
2022-08-04T00:56:01.048Z,100846.75
2022-08-04T00:58:51.310Z,100848.22
2022-08-04T01:01:44.574Z,100843.44
2022-08-04T01:04:36.259Z,100843.19
2022-08-04T01:07:25.277Z,100846.56
2022-08-04T01:10:26.365Z,100840.94
2022-08-04T01:13:15.549Z,100838.59
2022-08-04T01:16:05.589Z,100841.88
2022-08-04T01:18:46.097Z,100842.25
2022-08-04T01:21:35.673Z,100847.13
2022-08-04T01:24:10.292Z,100848.06
2022-08-04T01:27:13.257Z,100842.66
2022-08-04T01:29:54.987Z,100836.44
2022-08-04T01:32:40.560Z,100829.16
2022-08-04T01:35:21.989Z,100830.56
2022-08-04T01:38:21.789Z,100831.44
2022-08-04T01:40:55.696Z,100840.00
2022-08-04T01:43:28.295Z,100835.25
2022-08-04T01:46:00.817Z,100836.91
2022-08-04T01:48:31.766Z,100842.16
2022-08-04T01:51:08.726Z,100833.88
2022-08-04T01:53:40.372Z,100839.88
2022-08-04T01:56:12.701Z,100833.66
2022-08-04T01:58:55.156Z,100835.72
2022-08-04T02:01:26.804Z,100831.34
2022-08-04T02:04:19.519Z,100833.13
2022-08-04T02:06:58.919Z,100839.38
2022-08-04T02:09:33.233Z,100835.41
2022-08-04T02:12:25.004Z,100840.06
2022-08-04T02:14:56.417Z,100840.69
2022-08-04T02:17:39.088Z,100838.69
2022-08-04T02:20:31.180Z,100843.97
2022-08-04T02:23:01.136Z,100840.75
2022-08-04T02:30:00.315Z,100827.56
2022-08-04T02:32:35.733Z,100838.69
2022-08-04T02:35:16.428Z,100830.69
2022-08-04T02:37:54.497Z,100831.78
2022-08-04T02:40:29.745Z,100824.91
2022-08-04T02:43:07.587Z,100829.44
2022-08-04T02:45:45.382Z,100827.56
2022-08-04T02:48:30.914Z,100827.03
2022-08-04T02:51:06.203Z,100826.06
2022-08-04T02:53:45.316Z,100822.88
2022-08-04T02:56:28.885Z,100817.56
2022-08-04T02:59:08.881Z,100827.69
2022-08-04T03:01:57.522Z,100821.63
2022-08-04T03:04:42.032Z,100824.72
2022-08-04T03:07:32.025Z,100825.34
2022-08-04T03:10:26.774Z,100825.28
2022-08-04T03:13:22.696Z,100823.72
2022-08-04T03:16:02.599Z,100831.78
2022-08-04T03:18:34.050Z,100822.88
2022-08-04T03:21:20.543Z,100826.81
2022-08-04T03:24:07.343Z,100822.53
2022-08-04T03:27:05.605Z,100816.66
2022-08-04T03:29:43.683Z,100817.13
2022-08-04T03:32:20.753Z,100815.78
2022-08-04T03:35:22.812Z,100818.69
2022-08-04T03:38:05.156Z,100812.63
2022-08-04T03:40:59.234Z,100810.84
2022-08-04T03:43:57.786Z,100822.81
2022-08-04T03:46:27.886Z,100812.63
2022-08-04T03:49:01.228Z,100813.59
2022-08-04T03:51:56.441Z,100812.47
2022-08-04T03:54:24.493Z,100808.25
2022-08-04T03:57:02.958Z,100813.50
2022-08-04T04:00:02.810Z,100807.38
2022-08-04T04:03:08.916Z,100811.09
2022-08-04T04:06:00.391Z,100811.63
2022-08-04T04:08:43.334Z,100817.09
2022-08-04T04:11:16.536Z,100812.03
2022-08-04T04:14:05.080Z,100811.41
2022-08-04T04:16:48.259Z,100813.25
2022-08-04T04:19:34.968Z,100812.50
2022-08-04T04:22:29.442Z,100806.38
2022-08-04T04:25:14.959Z,100822.75
2022-08-04T04:28:43.559Z,100819.44
2022-08-04T04:31:18.407Z,100825.50
2022-08-04T04:33:59.032Z,100818.41
2022-08-04T04:36:46.048Z,100820.41
2022-08-04T04:39:40.615Z,100824.59
2022-08-04T04:42:27.840Z,100827.66
2022-08-04T04:45:02.101Z,100828.38
2022-08-04T04:48:06.941Z,100827.59
2022-08-04T04:50:36.691Z,100828.31
2022-08-04T04:53:27.376Z,100834.00
2022-08-04T04:56:12.795Z,100836.16
2022-08-04T04:58:49.096Z,100833.69
2022-08-04T05:01:52.155Z,100842.84
2022-08-04T05:04:50.004Z,100846.94
2022-08-04T05:11:24.140Z,100844.66
2022-08-04T05:14:36.573Z,100847.88
2022-08-04T05:16:47.250Z,100842.97
2022-08-04T05:19:24.256Z,100841.63
2022-08-04T05:21:57.444Z,100838.34
2022-08-04T05:24:28.737Z,100837.66
2022-08-04T05:27:18.656Z,100838.69
2022-08-04T05:29:51.901Z,100841.56
2022-08-04T05:32:44.761Z,100842.56
2022-08-04T05:36:17.950Z,100841.72
2022-08-04T05:38:46.293Z,100844.84
2022-08-04T05:41:55.590Z,100854.56
2022-08-04T05:44:51.122Z,100853.69
2022-08-04T05:47:26.226Z,100858.56
2022-08-04T05:50:15.980Z,100854.06
2022-08-04T05:53:15.571Z,100856.94
2022-08-04T05:55:58.750Z,100857.03
2022-08-04T05:58:35.406Z,100859.44
2022-08-04T06:01:12.467Z,100857.16
2022-08-04T06:09:59.882Z,100853.31
2022-08-04T06:12:45.142Z,100853.34
2022-08-04T06:15:28.444Z,100849.25
2022-08-04T06:21:16.293Z,100847.38
2022-08-04T06:23:56.124Z,100854.91
2022-08-04T06:26:45.148Z,100857.44
2022-08-04T06:29:50.804Z,100863.94
2022-08-04T06:39:09.257Z,100866.22
2022-08-04T06:42:01.947Z,100876.03
2022-08-04T06:44:56.898Z,100883.28
2022-08-04T06:51:35.180Z,100883.63
2022-08-04T06:53:46.593Z,100877.72
2022-08-04T06:56:15.233Z,100886.13
2022-08-04T07:02:19.526Z,100887.38
2022-08-04T07:04:54.205Z,100892.25
2022-08-04T07:07:36.894Z,100891.72
2022-08-04T07:10:11.636Z,100893.22
2022-08-04T08:12:35.764Z,100895.06
2022-08-04T09:53:57.751Z,100870.31
2022-08-04T09:56:53.251Z,100864.41
2022-08-04T10:03:05.833Z,100850.75
2022-08-04T14:52:19.443Z,100640.44
2022-08-04T15:32:05.381Z,100628.94
2022-08-04T15:39:25.371Z,100615.66
2022-08-04T16:53:53.106Z,100582.25
2022-08-04T17:52:45.107Z,100589.59
2022-08-04T17:55:20.471Z,100586.97
2022-08-04T17:58:55.446Z,100596.06
2022-08-04T18:01:55.601Z,100590.88
2022-08-04T18:04:25.783Z,100597.22
2022-08-04T18:07:01.241Z,100593.06
2022-08-04T18:10:01.856Z,100595.84
2022-08-04T18:12:49.085Z,100589.22
2022-08-04T18:18:51.830Z,100599.13
2022-08-04T18:21:59.629Z,100595.88
2022-08-04T18:28:28.145Z,100597.31
2022-08-04T18:32:33.179Z,100598.72
2022-08-04T18:48:37.453Z,100596.72
2022-08-04T19:25:15.841Z,100646.75
2022-08-04T21:04:27.434Z,100734.41
2022-08-04T21:07:25.289Z,100729.13
2022-08-04T21:12:59.388Z,100730.06
2022-08-04T22:03:52.890Z,100738.75
2022-08-04T22:06:19.300Z,100745.41
2022-08-04T22:08:51.341Z,100746.72
2022-08-04T22:14:13.832Z,100747.22
2022-08-04T22:16:51.111Z,100740.44
2022-08-04T22:19:54.596Z,100753.81
2022-08-04T22:22:29.519Z,100738.19
2022-08-04T22:25:13.397Z,100739.56
2022-08-04T22:31:55.699Z,100742.50
2022-08-04T22:41:20.841Z,100734.19
2022-08-04T22:44:08.264Z,100732.13
2022-08-04T22:50:51.484Z,100729.88
2022-08-04T22:54:38.071Z,100729.78
2022-08-04T23:26:08.380Z,100725.47
2022-08-04T23:28:29.772Z,100722.97
2022-08-04T23:31:12.745Z,100723.09
2022-08-04T23:34:06.309Z,100717.25
